首页
METAR-TAF:

METAR-TAF

机场 :

維拉港國際機場

维拉港, 埃法特岛, 瓦努阿图

纬度: 17-42S, 经度: 168-18E, 海拔: 20米

当前天气观测

该预报发布于32分钟前的10:00 UTC
风速2节,风向多变
温度 25°C
湿度 89%
气压 1012 hPa
能见度10公里或以上
少量云层高于2000英尺

METAR: NVVV 181000Z VRB02KT 9999 FEW020 25/23 Q1012

时间: 21:32 (10:32 UTC)

预报

该预报发布于5小时和32分钟前的05:00 UTC
预报有效从18日的 06点(UTC)到 19日的 06点(UTC)
风速10节,风向东北
能見度: 9000
散云层高于2000英尺
多云层高于4000英尺
多云层高于1800英尺
阴天层高于3800英尺
阵雨,

TAF: NVVV 180500Z 1806/1906 04010KT 9999 SCT020 BKN040 INTER 1806/1812 9000 SHRA BKN018 OVC038

超过4000个机场的气象观测和天气预报(METAR&TAF报告)。

可查询的气象台以黄色和红色小点在地图上表示。

将鼠标移到小点上方,可查看气象台名称。

然后点击查看天气观测和预报。

如需切换地图:点击带黑十字的绿色按钮放大地图;点击带横线的绿色按钮缩小地图;或者点击绿色箭头查看邻近地区的地图。


METAR-TAF: